Time;durP1;ratioP1;P1;durP2;ratioP2;P2;SDS_P1;SDS_P2;PMS_P1;PMS_P2;Temp;Humidity;BMP_temperature;BMP_pressure;BME280_temperature;BME280_humidity;BME280_pressure;Samples;Min_cycle;Max_cycle;Signal;HPM_P1;HPM_P2
2023/12/18 00:01:34;;;;;;;18.48;4.82;;;1.50;99.90;;;;;;5031076;28;20562;-68
2023/12/18 00:04:03;;;;;;;19.23;7.35;;;1.50;99.90;;;;;;5015837;28;20488;-69
2023/12/18 00:06:30;;;;;;;15.27;6.75;;;1.60;99.90;;;;;;5032453;28;20036;-68
2023/12/18 00:08:55;;;;;;;11.27;6.60;;;1.60;99.90;;;;;;5030699;28;20041;-68
2023/12/18 00:11:21;;;;;;;14.55;7.15;;;1.60;99.90;;;;;;5033961;28;20141;-68
2023/12/18 00:13:47;;;;;;;10.18;4.38;;;1.60;99.90;;;;;;5025463;28;20051;-69
2023/12/18 00:16:13;;;;;;;10.75;6.45;;;1.60;99.90;;;;;;5033100;28;20067;-68
2023/12/18 00:18:38;;;;;;;7.15;5.63;;;1.60;99.90;;;;;;5024059;28;20575;-69
2023/12/18 00:21:04;;;;;;;11.32;7.63;;;1.70;99.90;;;;;;5048801;28;20040;-69
2023/12/18 00:23:30;;;;;;;15.75;5.80;;;1.60;99.90;;;;;;5049883;28;20501;-68
2023/12/18 00:25:56;;;;;;;15.85;6.50;;;1.70;99.90;;;;;;5048339;28;20108;-69
2023/12/18 00:28:21;;;;;;;17.85;8.57;;;1.60;99.90;;;;;;5014748;28;20032;-69
2023/12/18 00:30:48;;;;;;;16.33;7.10;;;1.70;99.90;;;;;;5049428;28;20044;-69
2023/12/18 00:33:17;;;;;;;10.52;4.93;;;1.70;99.90;;;;;;5007570;28;20021;-69
2023/12/18 00:35:42;;;;;;;6.70;5.45;;;1.70;99.90;;;;;;5023949;28;20056;-69
2023/12/18 00:38:08;;;;;;;6.18;4.22;;;1.70;99.90;;;;;;5031681;28;20083;-69
2023/12/18 00:40:34;;;;;;;32.45;6.13;;;1.70;99.90;;;;;;5015335;28;20036;-69
2023/12/18 00:43:00;;;;;;;7.97;5.13;;;1.70;99.90;;;;;;5031179;28;20052;-69
2023/12/18 00:45:25;;;;;;;7.75;4.63;;;1.70;99.90;;;;;;5033536;28;20119;-69
2023/12/18 00:47:52;;;;;;;10.80;3.75;;;1.70;99.90;;;;;;5053127;28;20496;-69
2023/12/18 00:50:18;;;;;;;6.82;4.28;;;1.70;99.90;;;;;;5052818;28;20032;-69
2023/12/18 00:52:44;;;;;;;20.10;5.63;;;1.80;99.90;;;;;;5035049;28;20029;-69
2023/12/18 00:55:09;;;;;;;19.95;6.63;;;1.70;99.90;;;;;;5031090;28;20032;-69
2023/12/18 00:57:35;;;;;;;16.10;5.63;;;1.70;99.90;;;;;;5025869;28;20520;-67
2023/12/18 01:00:01;;;;;;;13.10;5.45;;;1.70;99.90;;;;;;5031260;28;20037;-68
2023/12/18 01:02:27;;;;;;;12.05;7.18;;;1.70;99.90;;;;;;5011206;28;20382;-68
2023/12/18 01:04:53;;;;;;;12.93;6.43;;;1.80;99.90;;;;;;5051328;28;20039;-68
2023/12/18 01:07:19;;;;;;;18.35;7.97;;;1.80;99.90;;;;;;5026327;28;20481;-69
2023/12/18 01:09:44;;;;;;;11.75;7.32;;;1.80;99.90;;;;;;5037390;23;20060;-71
2023/12/18 01:12:10;;;;;;;15.13;6.60;;;1.80;99.90;;;;;;5032808;28;20515;-71
2023/12/18 01:14:36;;;;;;;8.68;5.38;;;1.80;99.90;;;;;;5030445;28;20041;-72
2023/12/18 01:17:01;;;;;;;19.42;6.53;;;1.90;99.90;;;;;;5027281;28;20033;-71
2023/12/18 01:19:27;;;;;;;5.88;5.28;;;1.80;99.90;;;;;;5032269;28;20029;-71
2023/12/18 01:21:53;;;;;;;14.88;5.05;;;1.80;99.90;;;;;;5014848;28;20034;-71
2023/12/18 01:24:19;;;;;;;14.02;6.07;;;1.80;99.90;;;;;;5031628;28;20029;-71
2023/12/18 01:26:44;;;;;;;14.65;6.15;;;1.90;99.90;;;;;;5032489;28;20756;-71
2023/12/18 01:29:10;;;;;;;14.85;7.20;;;1.90;99.90;;;;;;5031997;28;20037;-71
2023/12/18 01:31:36;;;;;;;8.88;5.85;;;1.90;99.90;;;;;;5032562;28;20099;-71
2023/12/18 01:34:01;;;;;;;10.15;5.32;;;1.90;99.90;;;;;;5027008;28;20079;-71
2023/12/18 01:36:27;;;;;;;20.25;8.95;;;1.90;99.90;;;;;;5012536;28;20458;-71
2023/12/18 01:38:53;;;;;;;16.48;6.35;;;1.90;99.90;;;;;;5031833;28;20037;-71
2023/12/18 01:41:22;;;;;;;10.65;6.78;;;2.00;99.90;;;;;;5014394;28;20072;-72
2023/12/18 01:43:48;;;;;;;7.45;4.82;;;1.90;99.90;;;;;;5013974;28;20083;-72
2023/12/18 01:46:21;;;;;;;15.25;6.53;;;1.90;99.90;;;;;;5031074;28;20512;-72
2023/12/18 01:48:48;;;;;;;10.88;6.78;;;2.00;99.90;;;;;;5023132;28;20037;-72
2023/12/18 01:51:14;;;;;;;13.25;6.93;;;2.00;99.90;;;;;;5031025;28;20029;-72
2023/12/18 01:53:44;;;;;;;12.40;4.50;;;2.00;99.90;;;;;;5013469;28;20083;-72
2023/12/18 01:56:13;;;;;;;11.52;7.43;;;2.00;99.90;;;;;;5013580;28;20029;-72
2023/12/18 01:58:41;;;;;;;30.55;6.55;;;2.00;99.90;;;;;;5029422;28;20033;-71
2023/12/18 02:01:11;;;;;;;8.63;4.78;;;2.00;99.90;;;;;;5030971;28;20087;-71
2023/12/18 02:03:39;;;;;;;11.93;5.30;;;2.00;99.90;;;;;;5012585;28;20440;-71
2023/12/18 02:06:06;;;;;;;21.13;9.10;;;2.00;99.90;;;;;;5022301;28;20572;-70
2023/12/18 02:08:32;;;;;;;16.38;7.88;;;2.10;99.90;;;;;;5029423;28;20025;-71
2023/12/18 02:10:59;;;;;;;9.75;5.75;;;2.00;99.90;;;;;;5024096;28;20448;-71
2023/12/18 02:13:26;;;;;;;20.52;7.20;;;2.10;99.90;;;;;;5002561;28;20036;-71
2023/12/18 02:15:52;;;;;;;10.07;5.78;;;2.10;99.90;;;;;;5030372;28;20496;-71
2023/12/18 02:18:18;;;;;;;13.70;6.55;;;2.10;99.90;;;;;;5029857;28;20547;-71
2023/12/18 02:20:44;;;;;;;10.10;6.32;;;2.20;99.90;;;;;;5031326;28;20057;-71
2023/12/18 02:23:13;;;;;;;8.13;6.18;;;2.10;99.90;;;;;;5029178;28;20025;-71
2023/12/18 02:25:38;;;;;;;11.40;6.45;;;2.20;99.90;;;;;;5030124;28;20562;-70
2023/12/18 02:28:08;;;;;;;11.77;7.40;;;2.20;99.90;;;;;;5030904;28;20042;-71
2023/12/18 02:30:35;;;;;;;26.42;9.15;;;2.20;99.90;;;;;;5013660;28;20143;-70
2023/12/18 02:33:00;;;;;;;17.52;9.05;;;2.20;99.90;;;;;;5029261;28;20040;-70
2023/12/18 02:35:26;;;;;;;17.38;7.82;;;2.20;99.90;;;;;;5012301;28;20034;-70
2023/12/18 02:37:52;;;;;;;12.45;7.68;;;2.30;99.90;;;;;;5012731;28;20034;-71
2023/12/18 02:40:18;;;;;;;13.13;7.85;;;2.30;99.90;;;;;;5030797;28;20116;-71
2023/12/18 02:42:43;;;;;;;29.98;9.05;;;2.30;99.90;;;;;;5029133;28;20033;-72
2023/12/18 02:45:10;;;;;;;25.48;9.73;;;2.30;99.90;;;;;;5029837;28;20104;-71
2023/12/18 02:47:36;;;;;;;28.00;8.85;;;2.30;99.90;;;;;;4997040;28;20556;-72
2023/12/18 02:50:02;;;;;;;9.15;5.53;;;2.30;99.90;;;;;;5029101;28;20485;-71
2023/12/18 02:52:28;;;;;;;22.25;9.95;;;2.20;99.90;;;;;;5029090;28;20045;-71
2023/12/18 02:54:54;;;;;;;24.30;10.40;;;2.20;99.90;;;;;;5012497;28;20037;-71
2023/12/18 02:57:20;;;;;;;39.17;13.68;;;2.20;99.90;;;;;;5012585;28;20037;-72
2023/12/18 02:59:45;;;;;;;18.70;9.20;;;2.20;99.90;;;;;;5013130;28;20124;-71
2023/12/18 03:02:11;;;;;;;18.55;8.40;;;2.20;99.90;;;;;;5030553;28;20041;-71
2023/12/18 03:04:41;;;;;;;23.83;9.93;;;2.20;99.90;;;;;;5011983;28;20112;-71
2023/12/18 03:07:09;;;;;;;23.30;8.05;;;2.20;99.90;;;;;;5028265;28;20034;-71
2023/12/18 03:09:36;;;;;;;28.08;10.48;;;2.20;99.90;;;;;;5028867;28;20044;-71
2023/12/18 03:12:02;;;;;;;19.02;9.82;;;2.30;99.90;;;;;;5028813;28;20036;-71
2023/12/18 03:14:28;;;;;;;20.85;10.07;;;2.30;99.90;;;;;;5028702;28;20049;-70
2023/12/18 03:16:54;;;;;;;14.75;8.02;;;2.30;99.90;;;;;;5024004;28;20035;-71
2023/12/18 03:19:19;;;;;;;19.55;10.23;;;2.30;99.90;;;;;;5012751;28;20104;-71
2023/12/18 03:21:46;;;;;;;17.98;10.13;;;2.30;99.90;;;;;;5012459;28;20061;-71
2023/12/18 03:24:12;;;;;;;17.65;9.45;;;2.30;99.90;;;;;;5024889;28;20069;-71
2023/12/18 03:26:37;;;;;;;16.35;8.00;;;2.20;99.90;;;;;;5011831;28;20051;-71
2023/12/18 03:29:04;;;;;;;20.95;9.00;;;2.20;99.90;;;;;;5029403;28;20029;-71
2023/12/18 03:31:29;;;;;;;18.60;8.20;;;2.20;99.90;;;;;;5026659;28;20068;-71
2023/12/18 03:33:55;;;;;;;11.80;6.93;;;2.20;99.90;;;;;;5012138;28;20052;-70
2023/12/18 03:36:21;;;;;;;15.48;7.78;;;2.20;99.90;;;;;;5009062;28;20025;-71
2023/12/18 03:38:47;;;;;;;21.25;9.80;;;2.30;99.90;;;;;;5029085;28;20030;-71
2023/12/18 03:41:13;;;;;;;21.92;8.88;;;2.30;99.90;;;;;;5029172;28;20108;-70
2023/12/18 03:43:38;;;;;;;19.05;9.02;;;2.20;99.90;;;;;;5013515;28;20536;-71
2023/12/18 03:46:06;;;;;;;27.30;9.75;;;2.30;99.90;;;;;;5013482;28;20025;-71
2023/12/18 03:48:31;;;;;;;21.08;9.38;;;2.30;99.90;;;;;;5014078;28;20035;-71
2023/12/18 03:50:57;;;;;;;21.95;7.50;;;2.30;99.90;;;;;;5011263;28;20041;-71
2023/12/18 03:53:23;;;;;;;12.32;6.78;;;2.30;99.90;;;;;;5013358;28;20031;-71
2023/12/18 03:55:49;;;;;;;11.50;7.78;;;2.20;99.90;;;;;;5029787;28;20037;-71
2023/12/18 03:58:14;;;;;;;11.73;5.03;;;2.10;99.90;;;;;;5013482;28;20040;-71
2023/12/18 04:00:41;;;;;;;16.50;6.93;;;2.10;99.90;;;;;;5030634;28;20163;-71
2023/12/18 04:03:07;;;;;;;14.55;7.07;;;2.10;99.90;;;;;;5013678;28;20037;-71
2023/12/18 04:05:33;;;;;;;11.50;7.28;;;2.10;99.90;;;;;;5013809;28;20029;-71
2023/12/18 04:07:59;;;;;;;17.10;8.07;;;2.10;99.90;;;;;;5008337;28;20044;-71
2023/12/18 04:10:25;;;;;;;16.02;8.00;;;2.10;99.90;;;;;;5029892;28;20037;-71
2023/12/18 04:12:54;;;;;;;20.23;9.40;;;2.00;99.90;;;;;;5029580;28;20374;-71
2023/12/18 04:15:20;;;;;;;8.50;5.93;;;2.00;99.90;;;;;;5031337;28;20054;-71
2023/12/18 04:17:46;;;;;;;12.63;7.05;;;2.00;99.90;;;;;;5029320;28;20057;-71
2023/12/18 04:20:11;;;;;;;26.77;7.55;;;2.00;99.90;;;;;;4996900;28;20060;-71
2023/12/18 04:22:37;;;;;;;12.45;7.43;;;2.00;99.90;;;;;;5030653;28;20060;-71
2023/12/18 04:25:03;;;;;;;16.15;7.63;;;2.00;99.90;;;;;;5029710;28;20033;-71
2023/12/18 04:27:29;;;;;;;8.23;5.60;;;2.00;99.90;;;;;;5029584;28;20056;-71
2023/12/18 04:29:55;;;;;;;15.48;7.70;;;2.00;99.90;;;;;;5028579;28;20068;-70
2023/12/18 04:32:21;;;;;;;11.20;6.60;;;2.00;99.90;;;;;;5030641;28;20103;-71
2023/12/18 04:34:46;;;;;;;24.60;7.63;;;1.90;99.90;;;;;;5031095;28;20034;-71
2023/12/18 04:37:12;;;;;;;13.43;4.72;;;1.90;99.90;;;;;;5030802;28;20033;-72
2023/12/18 04:39:38;;;;;;;12.18;6.22;;;1.90;99.90;;;;;;5029776;28;20405;-72
2023/12/18 04:42:04;;;;;;;11.88;6.47;;;1.90;99.90;;;;;;5030828;28;20036;-71
2023/12/18 04:44:30;;;;;;;14.32;7.22;;;1.90;99.90;;;;;;5029858;28;20036;-72
2023/12/18 04:46:56;;;;;;;4.80;3.97;;;1.90;99.90;;;;;;5012103;28;20482;-72
2023/12/18 04:49:22;;;;;;;8.00;6.43;;;1.90;99.90;;;;;;5010433;28;20030;-72
2023/12/18 04:51:48;;;;;;;17.85;5.40;;;1.90;99.90;;;;;;5029123;28;20568;-72
2023/12/18 04:54:14;;;;;;;14.00;7.32;;;1.90;99.90;;;;;;5030914;28;20112;-72
2023/12/18 04:56:40;;;;;;;13.70;8.50;;;1.90;99.90;;;;;;5028780;28;20044;-72
2023/12/18 04:59:06;;;;;;;23.17;10.07;;;1.90;99.90;;;;;;5029199;28;20029;-71
2023/12/18 05:01:34;;;;;;;7.22;5.78;;;1.90;99.90;;;;;;5012844;28;20037;-72
2023/12/18 05:04:00;;;;;;;15.38;6.60;;;1.90;99.90;;;;;;5029098;28;20113;-71
2023/12/18 05:06:28;;;;;;;10.15;6.05;;;1.90;99.90;;;;;;5030112;28;20105;-72
2023/12/18 05:08:55;;;;;;;15.60;8.25;;;1.90;99.90;;;;;;5030829;28;20037;-72
2023/12/18 05:11:24;;;;;;;24.58;8.20;;;1.90;99.90;;;;;;5010684;28;20462;-71
2023/12/18 05:13:50;;;;;;;9.73;4.72;;;1.90;99.90;;;;;;5034240;28;20021;-73
2023/12/18 05:16:18;;;;;;;11.63;6.22;;;1.90;99.90;;;;;;5017174;28;20417;-73
2023/12/18 05:18:44;;;;;;;16.48;7.10;;;1.90;99.90;;;;;;5017994;28;20049;-71
2023/12/18 05:21:11;;;;;;;12.07;6.80;;;1.90;99.90;;;;;;5028484;28;20056;-74
2023/12/18 05:23:38;;;;;;;12.85;7.78;;;2.00;99.90;;;;;;4993741;28;20037;-72
2023/12/18 05:26:04;;;;;;;8.68;6.25;;;1.90;99.90;;;;;;5032186;28;20017;-71
2023/12/18 05:28:30;;;;;;;17.20;6.55;;;1.90;99.90;;;;;;5010644;28;20022;-72
2023/12/18 05:30:56;;;;;;;11.27;8.20;;;1.90;99.90;;;;;;5012642;28;20061;-71
2023/12/18 05:33:22;;;;;;;14.55;7.50;;;1.90;99.90;;;;;;5010217;28;20026;-71
2023/12/18 05:35:48;;;;;;;15.32;9.63;;;1.90;99.90;;;;;;5033511;28;20646;-70
2023/12/18 05:38:13;;;;;;;19.17;7.90;;;1.80;99.90;;;;;;5018119;28;20020;-72
2023/12/18 05:40:39;;;;;;;12.48;6.13;;;1.80;99.90;;;;;;5016828;28;20052;-71
2023/12/18 05:43:05;;;;;;;17.23;7.95;;;1.80;99.90;;;;;;5036654;28;20029;-72
2023/12/18 05:45:32;;;;;;;7.78;5.63;;;1.80;99.90;;;;;;5015657;28;20053;-71
2023/12/18 05:47:59;;;;;;;7.32;5.30;;;1.80;99.90;;;;;;5032026;28;20039;-71
2023/12/18 05:50:25;;;;;;;10.38;7.00;;;1.90;99.90;;;;;;5012643;28;20030;-70
2023/12/18 05:52:51;;;;;;;13.07;6.55;;;1.90;99.90;;;;;;5014321;28;20075;-72
2023/12/18 05:55:17;;;;;;;12.50;7.65;;;1.80;99.90;;;;;;5032904;28;20542;-71
2023/12/18 05:57:43;;;;;;;7.75;6.82;;;1.70;99.90;;;;;;5025499;28;20040;-72
2023/12/18 06:00:09;;;;;;;16.02;6.90;;;1.70;99.90;;;;;;5010655;28;20033;-70
2023/12/18 06:02:36;;;;;;;16.42;7.32;;;1.70;99.90;;;;;;5032994;28;20029;-70
2023/12/18 06:05:03;;;;;;;15.23;6.55;;;1.70;99.90;;;;;;5016023;28;20032;-72
2023/12/18 06:07:29;;;;;;;20.45;8.48;;;1.60;99.90;;;;;;5032312;28;20061;-71
2023/12/18 06:09:54;;;;;;;25.52;9.07;;;1.70;99.90;;;;;;5029010;28;20029;-70
2023/12/18 06:12:20;;;;;;;31.88;12.23;;;1.60;99.90;;;;;;5035969;28;20433;-72
2023/12/18 06:14:47;;;;;;;22.00;12.88;;;1.60;99.90;;;;;;5028138;28;20404;-71
2023/12/18 06:17:12;;;;;;;16.38;7.53;;;1.70;99.90;;;;;;5034433;28;20036;-72
2023/12/18 06:19:39;;;;;;;15.75;8.23;;;1.70;99.90;;;;;;5026725;28;20037;-70
2023/12/18 06:22:05;;;;;;;23.98;9.50;;;1.60;99.90;;;;;;5026511;28;20064;-71
2023/12/18 06:24:31;;;;;;;28.55;11.30;;;1.60;99.90;;;;;;5030131;28;20061;-70
2023/12/18 06:26:57;;;;;;;22.20;11.73;;;1.60;99.90;;;;;;5026474;28;20037;-71
2023/12/18 06:29:26;;;;;;;19.45;7.78;;;1.60;99.90;;;;;;5024165;28;20434;-73
2023/12/18 06:31:52;;;;;;;13.70;8.10;;;1.60;99.90;;;;;;5031379;28;20032;-71
2023/12/18 06:34:18;;;;;;;24.63;9.50;;;1.60;99.90;;;;;;5024861;28;20029;-69
2023/12/18 06:36:44;;;;;;;16.05;8.45;;;1.60;99.90;;;;;;5031659;28;20036;-70
2023/12/18 06:39:11;;;;;;;16.70;8.25;;;1.60;99.90;;;;;;5027504;28;20033;-71
2023/12/18 06:41:37;;;;;;;12.45;8.27;;;1.60;99.90;;;;;;5030801;28;20041;-71
2023/12/18 06:44:04;;;;;;;25.45;8.48;;;1.50;99.90;;;;;;5005603;28;20029;-71
2023/12/18 06:46:31;;;;;;;21.90;8.85;;;1.50;99.90;;;;;;5030282;28;20029;-72
2023/12/18 06:48:57;;;;;;;27.02;9.52;;;1.50;99.90;;;;;;5030399;28;20037;-71
2023/12/18 06:51:23;;;;;;;15.73;7.15;;;1.50;99.90;;;;;;5027964;28;20033;-74
2023/12/18 06:53:50;;;;;;;20.92;8.75;;;1.50;99.90;;;;;;5030017;28;20021;-71
2023/12/18 06:56:16;;;;;;;19.65;10.98;;;1.60;99.90;;;;;;5026995;28;20075;-72
2023/12/18 06:58:42;;;;;;;25.65;11.52;;;1.50;99.90;;;;;;5031454;28;20029;-71
2023/12/18 07:01:07;;;;;;;28.27;11.57;;;1.50;99.90;;;;;;5024238;28;20033;-72
2023/12/18 07:03:33;;;;;;;14.93;6.07;;;1.50;99.90;;;;;;5012959;28;20075;-72
2023/12/18 07:05:59;;;;;;;12.50;8.60;;;1.50;99.90;;;;;;5023874;28;20025;-72
2023/12/18 07:08:28;;;;;;;17.10;10.38;;;1.50;99.90;;;;;;5006910;28;20036;-72
2023/12/18 07:10:55;;;;;;;25.58;10.57;;;1.50;99.90;;;;;;5030910;28;20029;-72
2023/12/18 07:13:21;;;;;;;29.55;9.30;;;1.50;99.90;;;;;;5021964;28;20021;-72
2023/12/18 07:15:46;;;;;;;11.40;7.95;;;1.50;99.90;;;;;;5029271;28;20080;-67
2023/12/18 07:18:13;;;;;;;20.15;8.80;;;1.50;99.90;;;;;;5028283;28;20033;-63
2023/12/18 07:20:40;;;;;;;20.30;9.80;;;1.60;99.90;;;;;;5029930;28;20049;-63
2023/12/18 07:23:06;;;;;;;11.48;6.88;;;1.60;99.90;;;;;;5027697;28;20025;-64
2023/12/18 07:25:32;;;;;;;12.90;8.07;;;1.50;99.90;;;;;;5029966;28;20378;-71
2023/12/18 07:27:57;;;;;;;12.98;7.85;;;1.60;99.90;;;;;;5029327;28;20546;-74
2023/12/18 07:30:23;;;;;;;20.90;8.25;;;1.60;99.90;;;;;;5009844;28;20465;-74
2023/12/18 07:32:50;;;;;;;12.90;6.70;;;1.50;99.90;;;;;;5029361;28;20028;-71
2023/12/18 07:35:15;;;;;;;14.88;7.90;;;1.50;99.90;;;;;;5029241;28;20017;-71
2023/12/18 07:37:41;;;;;;;19.30;6.22;;;1.60;99.90;;;;;;5031964;28;20375;-71
2023/12/18 07:40:08;;;;;;;18.10;9.70;;;1.60;99.90;;;;;;5029615;28;20042;-72
2023/12/18 07:42:33;;;;;;;14.45;6.75;;;1.60;99.90;;;;;;5013920;28;20108;-71
2023/12/18 07:44:59;;;;;;;8.60;6.25;;;1.50;99.90;;;;;;5030340;28;20240;-72
2023/12/18 07:47:25;;;;;;;18.73;8.82;;;1.50;99.90;;;;;;5014065;28;20030;-71
2023/12/18 07:49:51;;;;;;;12.30;6.35;;;1.50;99.90;;;;;;5030633;28;20032;-73
2023/12/18 07:52:16;;;;;;;13.23;8.10;;;1.50;99.90;;;;;;5031132;28;20029;-72
2023/12/18 07:54:42;;;;;;;13.10;8.10;;;1.50;99.90;;;;;;5028430;28;20366;-71
2023/12/18 07:57:08;;;;;;;9.55;6.85;;;1.50;99.90;;;;;;5031403;28;20029;-71
2023/12/18 07:59:39;;;;;;;17.98;7.18;;;1.40;99.90;;;;;;5030668;28;20079;-70
2023/12/18 08:02:09;;;;;;;24.63;8.40;;;1.40;99.90;;;;;;5031078;28;20122;-70
2023/12/18 08:04:35;;;;;;;17.27;6.33;;;1.40;99.90;;;;;;5029038;28;20069;-71
2023/12/18 08:07:02;;;;;;;15.02;6.25;;;1.50;99.90;;;;;;5030661;28;20424;-72
2023/12/18 08:09:28;;;;;;;15.70;8.05;;;1.40;99.90;;;;;;5029504;28;20033;-71
2023/12/18 08:11:54;;;;;;;20.30;11.82;;;1.50;99.90;;;;;;5031816;28;20087;-71
2023/12/18 08:14:20;;;;;;;14.20;7.88;;;1.60;99.90;;;;;;5029201;28;20034;-72
2023/12/18 08:16:45;;;;;;;15.10;8.00;;;1.50;99.90;;;;;;5031432;28;20021;-71
2023/12/18 08:19:11;;;;;;;17.15;10.48;;;1.50;99.90;;;;;;5028164;28;20037;-71
2023/12/18 08:21:37;;;;;;;23.92;8.27;;;1.50;99.90;;;;;;4996119;28;20447;-72
2023/12/18 08:24:03;;;;;;;14.80;8.48;;;1.50;99.90;;;;;;5007951;28;20030;-72
2023/12/18 08:26:29;;;;;;;27.58;12.90;;;1.50;99.90;;;;;;5028906;28;20029;-71
2023/12/18 08:28:56;;;;;;;12.43;7.13;;;1.50;99.90;;;;;;5030897;28;20051;-72
2023/12/18 08:31:22;;;;;;;26.08;11.35;;;1.50;99.90;;;;;;5031560;28;20081;-72
2023/12/18 08:33:47;;;;;;;27.55;8.25;;;1.50;99.90;;;;;;5030670;28;20057;-72
2023/12/18 08:36:13;;;;;;;16.48;7.90;;;1.50;99.90;;;;;;5028387;28;20125;-72
2023/12/18 08:38:39;;;;;;;26.38;10.23;;;1.50;99.90;;;;;;5030111;28;20068;-72
2023/12/18 08:41:05;;;;;;;19.10;7.00;;;1.60;99.90;;;;;;5030771;28;20064;-71
2023/12/18 08:43:31;;;;;;;13.13;7.55;;;1.60;99.90;;;;;;5029973;28;20075;-71
2023/12/18 08:45:57;;;;;;;16.27;6.93;;;1.50;99.90;;;;;;5013346;28;20029;-72
2023/12/18 08:48:23;;;;;;;20.80;9.80;;;1.50;99.90;;;;;;5029360;28;20057;-72
2023/12/18 08:50:48;;;;;;;16.88;8.15;;;1.50;99.90;;;;;;5030190;28;20088;-72
2023/12/18 08:53:14;;;;;;;14.85;8.20;;;1.50;99.90;;;;;;5030379;28;20026;-71
2023/12/18 08:55:40;;;;;;;19.08;8.63;;;1.50;99.90;;;;;;5028309;28;20370;-71
2023/12/18 08:58:08;;;;;;;14.95;7.93;;;1.60;99.90;;;;;;5029421;28;20480;-71
2023/12/18 09:00:35;;;;;;;23.15;9.40;;;1.60;99.90;;;;;;5003114;28;20022;-71
2023/12/18 09:03:01;;;;;;;10.50;7.57;;;1.50;99.90;;;;;;5008751;28;20104;-71
2023/12/18 09:05:29;;;;;;;26.30;11.75;;;1.60;99.90;;;;;;5027802;28;20028;-72
2023/12/18 09:07:54;;;;;;;19.70;8.27;;;1.70;99.90;;;;;;5032383;28;20116;-71
2023/12/18 09:10:23;;;;;;;16.70;8.45;;;1.70;99.90;;;;;;5013982;28;20124;-71
2023/12/18 09:12:53;;;;;;;21.67;8.18;;;1.70;99.90;;;;;;5027298;28;20037;-72
2023/12/18 09:15:19;;;;;;;12.85;7.30;;;1.70;99.90;;;;;;5031517;28;20121;-72
2023/12/18 09:17:45;;;;;;;15.20;7.95;;;1.70;99.90;;;;;;5026925;28;20038;-72
2023/12/18 09:20:11;;;;;;;14.93;8.45;;;1.80;99.90;;;;;;5013933;28;20040;-71
2023/12/18 09:22:37;;;;;;;17.48;7.43;;;1.80;99.90;;;;;;5022732;28;20037;-71
2023/12/18 09:25:04;;;;;;;14.18;8.68;;;1.70;99.90;;;;;;5006394;28;20482;-71
2023/12/18 09:27:30;;;;;;;15.02;9.23;;;1.60;99.90;;;;;;5027370;28;20037;-71
2023/12/18 09:29:56;;;;;;;14.98;6.93;;;1.60;99.90;;;;;;5031808;28;20405;-72
2023/12/18 09:32:21;;;;;;;23.05;9.90;;;1.60;99.90;;;;;;5026761;28;20474;-71
2023/12/18 09:34:47;;;;;;;18.52;9.73;;;1.50;99.90;;;;;;5029306;28;20029;-72
2023/12/18 09:37:13;;;;;;;15.48;9.07;;;1.50;99.90;;;;;;5032944;28;20361;-71
2023/12/18 09:39:42;;;;;;;22.88;10.88;;;1.50;99.90;;;;;;5012016;28;20034;-72
2023/12/18 09:42:11;;;;;;;13.50;8.02;;;1.50;99.90;;;;;;5032376;28;20113;-71
2023/12/18 09:44:40;;;;;;;16.58;9.70;;;1.60;99.90;;;;;;5014028;28;20029;-71
2023/12/18 09:47:07;;;;;;;16.98;8.38;;;1.60;99.90;;;;;;5016611;28;20031;-71
2023/12/18 09:49:34;;;;;;;7.88;6.22;;;1.60;99.90;;;;;;5031105;28;20036;-72
2023/12/18 09:52:06;;;;;;;9.95;6.78;;;1.70;99.90;;;;;;5032307;28;20064;-71
2023/12/18 09:54:37;;;;;;;10.98;7.03;;;1.70;99.90;;;;;;5031422;28;20376;-71
2023/12/18 09:57:07;;;;;;;27.00;6.00;;;1.70;99.90;;;;;;5028611;28;20028;-71
2023/12/18 09:59:33;;;;;;;15.30;8.02;;;1.70;99.90;;;;;;5031018;28;20034;-71
2023/12/18 10:01:59;;;;;;;14.20;5.45;;;1.80;99.90;;;;;;5032012;28;20026;-71
2023/12/18 10:04:26;;;;;;;10.85;6.78;;;1.90;99.90;;;;;;5031182;28;20044;-70
2023/12/18 10:06:52;;;;;;;15.18;8.27;;;1.80;99.90;;;;;;5030456;28;20037;-71
2023/12/18 10:09:18;;;;;;;16.63;8.88;;;1.90;99.90;;;;;;5029112;28;20175;-71
2023/12/18 10:11:47;;;;;;;7.30;5.38;;;1.90;99.90;;;;;;5033384;28;20450;-71
2023/12/18 10:14:17;;;;;;;17.58;6.63;;;2.00;99.90;;;;;;5030652;28;20083;-71
2023/12/18 10:16:43;;;;;;;20.52;5.75;;;2.10;99.90;;;;;;5023858;28;20473;-70
2023/12/18 10:19:12;;;;;;;13.18;8.23;;;2.10;99.90;;;;;;5010164;28;20116;-71
2023/12/18 10:21:38;;;;;;;13.30;8.10;;;2.00;99.90;;;;;;5014425;28;20047;-70
2023/12/18 10:24:05;;;;;;;10.10;6.28;;;2.10;99.90;;;;;;5025697;28;20026;-70
2023/12/18 10:26:34;;;;;;;10.15;4.63;;;2.10;99.90;;;;;;4997633;28;20033;-70
2023/12/18 10:29:00;;;;;;;11.25;5.03;;;2.20;99.90;;;;;;5025246;28;20032;-70
2023/12/18 10:31:26;;;;;;;15.75;9.73;;;2.30;99.90;;;;;;5033243;28;20106;-71
2023/12/18 10:33:52;;;;;;;14.65;7.72;;;2.50;99.90;;;;;;5026633;28;20022;-71
2023/12/18 10:36:19;;;;;;;22.20;9.23;;;2.60;99.90;;;;;;5032934;28;20025;-68
2023/12/18 10:38:51;;;;;;;11.65;7.53;;;2.80;99.90;;;;;;4993384;28;20103;-72
2023/12/18 10:41:21;;;;;;;13.45;8.82;;;2.80;99.90;;;;;;4997424;28;20038;-72
2023/12/18 10:43:49;;;;;;;15.00;8.83;;;3.20;99.90;;;;;;4981228;28;20038;-72
2023/12/18 10:46:15;;;;;;;19.70;9.23;;;4.20;99.90;;;;;;5030750;28;20084;-72
2023/12/18 10:48:42;;;;;;;15.68;9.15;;;6.30;99.90;;;;;;5029054;28;20138;-72
2023/12/18 10:51:10;;;;;;;17.25;8.98;;;6.90;99.90;;;;;;4995549;28;20525;-71
2023/12/18 10:53:37;;;;;;;17.63;9.40;;;5.70;99.90;;;;;;5030977;28;20037;-72
2023/12/18 10:56:06;;;;;;;20.58;9.90;;;6.00;99.90;;;;;;5030781;28;20044;-71
2023/12/18 10:58:34;;;;;;;26.30;9.27;;;6.40;99.90;;;;;;5004704;28;20030;-71
2023/12/18 11:01:03;;;;;;;18.17;8.50;;;7.40;99.90;;;;;;5026032;28;20029;-71
2023/12/18 11:03:29;;;;;;;26.20;9.43;;;8.60;99.90;;;;;;5007852;28;20037;-71
2023/12/18 11:05:56;;;;;;;25.33;11.43;;;8.40;99.90;;;;;;5030492;28;20061;-71
2023/12/18 11:08:23;;;;;;;16.00;8.65;;;9.30;99.90;;;;;;5004290;28;20107;-71
2023/12/18 11:10:51;;;;;;;17.25;8.30;;;8.70;99.90;;;;;;5008619;28;20041;-71
2023/12/18 11:13:50;;;;;;;15.25;7.97;;;8.00;99.90;;;;;;5024036;28;20076;-70
2023/12/18 11:16:35;;;;;;;17.10;7.57;;;10.00;99.90;;;;;;5030931;28;20022;-70
2023/12/18 11:19:29;;;;;;;12.30;6.35;;;12.90;99.90;;;;;;5020403;28;20490;-71
2023/12/18 11:21:54;;;;;;;7.55;5.20;;;12.80;98.10;;;;;;5007315;28;20033;-71
2023/12/18 11:24:20;;;;;;;9.55;5.07;;;10.10;99.90;;;;;;5027315;28;20109;-71
2023/12/18 11:26:47;;;;;;;11.75;6.30;;;10.60;99.90;;;;;;5031964;28;20031;-71
2023/12/18 11:29:45;;;;;;;12.93;5.82;;;10.70;99.90;;;;;;5029294;28;20037;-72
2023/12/18 11:32:32;;;;;;;13.48;5.82;;;12.00;98.10;;;;;;5029001;28;20074;-72
2023/12/18 11:34:58;;;;;;;13.32;5.63;;;12.10;99.90;;;;;;5013889;28;20033;-71
2023/12/18 11:37:24;;;;;;;11.82;5.65;;;11.90;98.60;;;;;;5015402;28;20037;-71
2023/12/18 11:39:49;;;;;;;13.23;5.32;;;13.40;97.20;;;;;;5028156;28;20029;-71
2023/12/18 11:42:45;;;;;;;13.63;6.20;;;14.90;92.50;;;;;;5010350;28;20402;-71
2023/12/18 11:45:11;;;;;;;8.65;4.63;;;12.70;92.80;;;;;;5025950;28;20168;-72
2023/12/18 11:47:39;;;;;;;13.18;5.30;;;13.80;92.80;;;;;;5013733;28;20116;-73
2023/12/18 11:50:06;;;;;;;8.98;4.03;;;14.50;91.30;;;;;;5026442;28;20029;-71
2023/12/18 11:52:32;;;;;;;9.18;4.00;;;10.70;98.30;;;;;;5011880;28;20029;-71
2023/12/18 11:54:58;;;;;;;9.57;4.40;;;10.50;99.90;;;;;;5029404;28;20041;-72
2023/12/18 11:57:24;;;;;;;9.23;4.93;;;10.40;99.90;;;;;;5028703;28;20036;-72
2023/12/18 11:59:50;;;;;;;9.80;4.95;;;11.20;99.90;;;;;;5024135;28;20037;-72
2023/12/18 12:02:16;;;;;;;10.57;4.38;;;10.50;99.90;;;;;;5028781;28;20025;-73
2023/12/18 12:04:43;;;;;;;8.98;4.10;;;10.60;99.90;;;;;;5008515;28;20052;-72
2023/12/18 12:07:12;;;;;;;8.80;4.05;;;11.80;99.90;;;;;;5011835;28;20059;-72
2023/12/18 12:09:40;;;;;;;6.80;4.20;;;13.00;96.60;;;;;;4996572;28;20524;-72
2023/12/18 12:12:06;;;;;;;10.00;4.90;;;12.80;96.30;;;;;;5028412;28;20021;-73
2023/12/18 12:14:32;;;;;;;11.15;4.07;;;11.90;99.90;;;;;;5007626;28;20116;-73
2023/12/18 12:17:03;;;;;;;13.35;5.35;;;14.00;95.20;;;;;;5028450;28;20188;-72
2023/12/18 12:19:35;;;;;;;10.05;4.78;;;10.80;99.90;;;;;;5026454;28;20071;-73
2023/12/18 12:22:01;;;;;;;11.85;4.10;;;11.90;99.90;;;;;;5013481;28;20072;-73
2023/12/18 12:24:27;;;;;;;9.45;4.47;;;12.70;97.40;;;;;;4997915;28;20057;-72
2023/12/18 12:26:54;;;;;;;8.35;5.13;;;11.40;99.90;;;;;;5022936;28;20036;-73
2023/12/18 12:29:20;;;;;;;9.07;4.88;;;11.10;99.90;;;;;;5010944;28;20025;-72
2023/12/18 12:31:46;;;;;;;8.15;3.70;;;10.20;99.90;;;;;;5013991;28;20029;-71
2023/12/18 12:34:14;;;;;;;10.30;4.85;;;11.60;99.90;;;;;;5010539;28;20497;-74
2023/12/18 12:36:43;;;;;;;6.55;3.60;;;11.50;99.90;;;;;;5031088;28;20056;-74
2023/12/18 12:39:08;;;;;;;10.43;4.93;;;10.50;99.90;;;;;;4992968;28;20037;-75
2023/12/18 12:41:35;;;;;;;8.50;4.53;;;9.90;99.90;;;;;;4999314;28;20029;-75
2023/12/18 12:44:01;;;;;;;10.30;4.55;;;9.70;99.90;;;;;;5012018;28;20034;-75